Time;durP1;ratioP1;P1;durP2;ratioP2;P2;SDS_P1;SDS_P2;PMS_P1;PMS_P2;Temp;Humidity;BMP_temperature;BMP_pressure;BME280_temperature;BME280_humidity;BME280_pressure;Samples;Min_cycle;Max_cycle;Signal;HPM_P1;HPM_P2
2021/09/11 00:02:14;;;;;;;5.22;2.20;;;;;;;15.83;44.02;94119.91;4989024;28;20046;-76
2021/09/11 00:04:45;;;;;;;2.90;2.38;;;;;;;15.72;44.17;94116.13;4986255;28;20472;-78
2021/09/11 00:07:11;;;;;;;4.50;2.70;;;;;;;14.59;43.54;93929.34;4992594;28;20033;-79
2021/09/11 00:09:36;;;;;;;5.80;2.45;;;;;;;15.60;43.60;94106.19;4991901;28;20037;-77
2021/09/11 00:12:02;;;;;;;4.32;2.47;;;;;;;15.67;43.64;94106.41;4988991;28;20038;-78
2021/09/11 00:14:27;;;;;;;5.25;2.30;;;;;;;15.70;43.74;94116.47;4991657;28;20539;-78
2021/09/11 00:16:53;;;;;;;2.80;2.05;;;;;;;15.58;44.12;94118.38;4988877;28;20524;-76
2021/09/11 00:19:18;;;;;;;4.07;2.65;;;;;;;15.47;44.68;94110.00;4989969;28;20029;-80
2021/09/11 00:21:43;;;;;;;3.50;2.33;;;;;;;15.46;44.52;94106.53;4991745;28;20050;-79
2021/09/11 00:24:09;;;;;;;7.82;2.63;;;;;;;15.28;44.82;94099.84;4987142;28;20038;-79
2021/09/11 00:26:34;;;;;;;5.38;2.22;;;;;;;15.34;44.59;94103.84;4989979;28;20135;-79
2021/09/11 00:28:59;;;;;;;4.70;2.30;;;;;;;15.36;44.74;94106.97;4993089;28;20049;-79
2021/09/11 00:31:25;;;;;;;4.55;2.20;;;;;;;15.26;44.86;94112.78;4988635;28;20023;-79
2021/09/11 00:33:50;;;;;;;4.15;2.60;;;;;;;15.37;44.97;94129.97;4990320;28;20038;-79
2021/09/11 00:36:16;;;;;;;4.70;2.85;;;;;;;15.16;45.16;94128.50;4990150;28;20470;-79
2021/09/11 00:38:41;;;;;;;4.00;2.10;;;;;;;15.09;45.35;94134.44;4995686;28;20045;-78
2021/09/11 00:41:06;;;;;;;3.63;2.10;;;;;;;15.16;45.40;94129.28;4994121;28;21046;-79
2021/09/11 00:43:34;;;;;;;3.72;2.40;;;;;;;15.05;45.45;94138.88;4989352;28;20034;-78
2021/09/11 00:46:00;;;;;;;3.13;2.30;;;;;;;14.90;45.77;94136.84;4990589;28;20120;-78
2021/09/11 00:48:25;;;;;;;2.40;2.08;;;;;;;14.93;45.53;94136.97;4994836;28;20036;-75
2021/09/11 00:50:51;;;;;;;4.05;2.80;;;;;;;14.91;45.79;94135.75;4995332;28;20037;-79
2021/09/11 00:53:18;;;;;;;4.70;2.85;;;;;;;14.73;45.57;94110.25;4996799;28;20038;-79
2021/09/11 00:55:45;;;;;;;5.68;2.92;;;;;;;14.92;44.73;94115.84;4996008;28;20100;-78
2021/09/11 00:58:11;;;;;;;3.88;2.95;;;;;;;14.81;45.33;94123.56;4993594;28;20030;-78
2021/09/11 01:00:36;;;;;;;7.03;2.80;;;;;;;14.92;45.79;94129.25;4995467;28;20030;-78
2021/09/11 01:03:02;;;;;;;3.50;2.78;;;;;;;14.86;45.48;94120.66;4995285;28;20045;-78
2021/09/11 01:05:28;;;;;;;4.75;2.60;;;;;;;14.99;45.47;94110.75;4992240;28;20026;-79
2021/09/11 01:07:53;;;;;;;5.90;2.20;;;;;;;15.09;44.53;94118.34;4993242;28;20496;-80
2021/09/11 01:10:19;;;;;;;4.15;2.30;;;;;;;14.80;45.49;94089.88;4994546;28;20026;-79
2021/09/11 01:12:47;;;;;;;4.63;2.45;;;;;;;15.13;44.90;94105.84;4994908;28;20045;-78
2021/09/11 01:15:12;;;;;;;3.42;2.40;;;;;;;15.14;45.11;94125.38;4992774;28;20415;-78
2021/09/11 01:17:42;;;;;;;5.13;2.85;;;;;;;15.03;45.45;94125.03;4995614;28;20058;-79
2021/09/11 01:20:08;;;;;;;2.88;2.58;;;;;;;14.64;45.60;94088.16;4992814;28;20095;-80
2021/09/11 01:22:34;;;;;;;4.90;2.90;;;;;;;14.94;45.78;94130.50;4992753;28;20103;-79
2021/09/11 01:25:03;;;;;;;2.83;2.40;;;;;;;14.94;45.74;94132.38;4994930;28;21219;-79
2021/09/11 01:27:29;;;;;;;2.95;2.38;;;;;;;14.92;45.41;94138.06;4990317;28;20046;-79
2021/09/11 01:30:03;;;;;;;5.22;2.58;;;;;;;14.98;45.25;94138.66;4997662;28;20057;-78
2021/09/11 01:32:30;;;;;;;4.75;3.30;;;;;;;14.84;45.88;94132.81;4999882;28;20089;-79
2021/09/11 01:34:56;;;;;;;3.72;2.63;;;;;;;14.78;45.99;94134.13;4992748;28;20038;-79
2021/09/11 01:37:22;;;;;;;3.03;2.65;;;;;;;14.72;46.03;94140.81;4991855;28;20026;-78
2021/09/11 01:39:49;;;;;;;4.93;3.10;;;;;;;14.98;45.80;94135.97;4992907;28;20079;-78
2021/09/11 01:42:19;;;;;;;3.95;2.70;;;;;;;14.81;45.32;94123.56;4990504;28;20447;-79
2021/09/11 01:44:46;;;;;;;6.65;2.75;;;;;;;14.75;46.18;94140.16;4994937;28;20045;-79
2021/09/11 01:47:12;;;;;;;4.50;2.55;;;;;;;14.52;46.45;94127.09;4992212;28;20121;-79
2021/09/11 01:49:38;;;;;;;4.70;2.60;;;;;;;14.66;46.32;94142.16;4993377;28;20092;-79
2021/09/11 01:52:03;;;;;;;5.25;2.85;;;;;;;14.48;46.90;94128.88;4993039;28;20030;-77
2021/09/11 01:54:28;;;;;;;3.08;2.35;;;;;;;14.49;47.02;94130.47;5007965;28;20045;-78
2021/09/11 01:56:54;;;;;;;5.78;2.55;;;;;;;14.57;47.01;94142.22;4992409;28;20033;-80
2021/09/11 01:59:19;;;;;;;3.80;2.35;;;;;;;14.41;47.74;94136.69;4991745;28;20027;-78
2021/09/11 02:01:45;;;;;;;7.32;2.70;;;;;;;14.33;47.37;94134.84;4997477;28;20484;-79
2021/09/11 02:04:10;;;;;;;3.30;2.88;;;;;;;14.13;47.76;94124.97;4991357;28;20041;-75
2021/09/11 02:06:35;;;;;;;3.67;2.75;;;;;;;14.25;47.19;94132.25;4994377;28;20620;-78
2021/09/11 02:09:01;;;;;;;3.90;2.78;;;;;;;14.23;47.37;94124.53;4991385;28;20038;-79
2021/09/11 02:11:26;;;;;;;4.38;3.45;;;;;;;14.27;46.84;94125.47;4991829;28;20042;-80
2021/09/11 02:13:51;;;;;;;4.60;2.60;;;;;;;14.29;47.00;94117.88;4995547;28;20561;-78
2021/09/11 02:16:17;;;;;;;6.90;3.53;;;;;;;14.28;47.03;94126.22;4991438;28;20083;-79
2021/09/11 02:18:42;;;;;;;5.40;2.67;;;;;;;14.31;46.94;94115.69;4994045;28;20485;-78
2021/09/11 02:21:07;;;;;;;4.20;2.67;;;;;;;14.38;46.66;94118.59;4993542;28;20535;-78
2021/09/11 02:23:33;;;;;;;6.55;2.83;;;;;;;14.23;47.25;94113.09;4992808;28;20121;-79
2021/09/11 02:25:58;;;;;;;4.70;3.05;;;;;;;14.15;47.26;94101.34;4990670;28;20053;-79
2021/09/11 02:28:24;;;;;;;6.30;2.90;;;;;;;14.11;47.60;94114.59;4992821;28;20503;-76
2021/09/11 02:30:49;;;;;;;4.22;2.70;;;;;;;14.18;47.25;94116.72;4991223;28;20032;-78
2021/09/11 02:33:14;;;;;;;5.50;3.20;;;;;;;14.11;47.98;94117.28;4992893;28;20136;-79
2021/09/11 02:35:40;;;;;;;4.20;2.75;;;;;;;13.95;47.63;94097.56;4991639;28;20044;-79
2021/09/11 02:38:05;;;;;;;3.80;2.90;;;;;;;14.04;47.82;94116.22;4992528;28;20065;-79
2021/09/11 02:40:31;;;;;;;3.28;2.83;;;;;;;13.89;48.07;94100.75;4992953;28;20692;-78
2021/09/11 02:42:57;;;;;;;6.90;3.60;;;;;;;13.94;48.15;94120.06;4992697;28;20034;-77
2021/09/11 02:45:22;;;;;;;13.50;2.83;;;;;;;13.94;48.07;94106.69;4992105;28;20045;-79
2021/09/11 02:47:47;;;;;;;6.30;2.75;;;;;;;13.96;48.18;94115.19;4990838;28;20093;-78
2021/09/11 02:50:13;;;;;;;4.43;2.60;;;;;;;13.87;48.43;94108.34;4989519;28;20044;-78
2021/09/11 02:52:38;;;;;;;3.50;2.75;;;;;;;13.94;48.55;94111.25;4989583;28;20039;-78
2021/09/11 02:55:04;;;;;;;5.93;2.78;;;;;;;13.95;48.61;94118.19;4995990;28;20635;-78
2021/09/11 02:57:30;;;;;;;3.53;2.78;;;;;;;13.91;48.57;94117.25;4985269;28;20030;-78
2021/09/11 02:59:55;;;;;;;5.30;2.90;;;;;;;14.00;47.79;94115.31;4990248;28;20041;-79
2021/09/11 03:02:20;;;;;;;3.85;3.08;;;;;;;13.90;48.32;94113.03;4990454;28;20093;-76
2021/09/11 03:04:46;;;;;;;3.15;2.60;;;;;;;13.91;47.96;94104.69;4990805;28;20053;-79
2021/09/11 03:07:11;;;;;;;5.25;2.80;;;;;;;14.08;47.86;94117.16;4990373;28;20384;-77
2021/09/11 03:09:36;;;;;;;5.03;3.63;;;;;;;14.05;47.54;94115.09;4990415;28;20037;-78
2021/09/11 03:12:02;;;;;;;8.27;3.05;;;;;;;13.97;47.98;94115.97;4987982;28;20057;-79
2021/09/11 03:14:27;;;;;;;4.93;2.75;;;;;;;14.00;47.85;94126.00;4994513;28;20080;-79
2021/09/11 03:16:53;;;;;;;4.28;2.50;;;;;;;14.42;46.66;94121.41;4989576;28;20545;-78
2021/09/11 03:19:18;;;;;;;4.75;2.80;;;;;;;14.13;46.76;94104.34;4988602;28;20022;-78
2021/09/11 03:21:44;;;;;;;5.57;3.00;;;;;;;14.05;47.33;94115.09;4993734;28;20028;-77
2021/09/11 03:24:09;;;;;;;6.43;2.95;;;;;;;13.91;47.60;94130.63;4987524;28;20157;-75
2021/09/11 03:26:34;;;;;;;3.63;2.30;;;;;;;13.73;48.11;94112.06;4991253;28;20534;-78
2021/09/11 03:29:00;;;;;;;4.22;3.10;;;;;;;13.73;48.15;94117.41;5007183;28;20161;-78
2021/09/11 03:31:25;;;;;;;2.75;2.55;;;;;;;13.95;47.79;94128.88;4988605;28;20106;-79
2021/09/11 03:33:51;;;;;;;3.80;2.75;;;;;;;13.85;48.16;94132.72;4994448;28;20052;-78
2021/09/11 03:36:16;;;;;;;2.80;2.47;;;;;;;13.36;48.21;94070.13;4992029;28;20076;-77
2021/09/11 03:38:41;;;;;;;4.85;3.88;;;;;;;13.56;48.46;94141.53;4986469;28;20038;-78
2021/09/11 03:41:07;;;;;;;3.60;2.97;;;;;;;13.47;48.53;94119.41;4992889;28;20038;-78
2021/09/11 03:43:32;;;;;;;3.72;3.17;;;;;;;13.69;48.30;94148.53;4992445;28;20038;-78
2021/09/11 03:45:58;;;;;;;5.10;3.28;;;;;;;13.64;48.11;94135.34;4989247;28;20093;-80
2021/09/11 03:48:24;;;;;;;5.70;3.20;;;;;;;13.65;48.41;94138.81;4992135;28;20124;-76
2021/09/11 03:50:50;;;;;;;10.20;3.30;;;;;;;13.55;48.32;94123.13;4991004;28;20034;-79
2021/09/11 03:53:15;;;;;;;7.97;3.30;;;;;;;13.51;48.38;94136.34;4990098;28;20033;-79
2021/09/11 03:55:41;;;;;;;4.05;3.35;;;;;;;13.43;48.67;94123.84;4989065;28;20128;-78
2021/09/11 03:58:08;;;;;;;7.78;2.97;;;;;;;13.44;48.77;94136.09;4992858;28;20023;-77
2021/09/11 04:00:33;;;;;;;15.45;4.50;;;;;;;13.63;48.16;94136.50;4990381;28;20054;-79
2021/09/11 04:02:59;;;;;;;4.50;3.17;;;;;;;13.51;48.82;94139.03;4986766;28;21296;-78
2021/09/11 04:05:24;;;;;;;4.82;2.72;;;;;;;13.37;49.00;94141.16;4989956;28;20162;-79
2021/09/11 04:07:49;;;;;;;6.45;3.53;;;;;;;13.33;49.12;94138.34;4991112;28;20052;-78
2021/09/11 04:10:15;;;;;;;4.38;2.80;;;;;;;13.39;49.03;94144.28;4986927;28;20100;-78
2021/09/11 04:12:40;;;;;;;3.35;3.05;;;;;;;13.33;49.46;94140.22;4991763;28;20026;-77
2021/09/11 04:15:06;;;;;;;4.63;3.28;;;;;;;13.35;49.26;94137.25;4997081;28;20037;-76
2021/09/11 04:17:31;;;;;;;3.90;2.80;;;;;;;13.14;49.45;94113.16;4992351;28;20066;-78
2021/09/11 04:19:57;;;;;;;5.47;3.17;;;;;;;13.29;49.66;94132.09;4994983;28;20048;-80
2021/09/11 04:22:22;;;;;;;5.80;3.38;;;;;;;13.27;49.49;94136.16;4993688;28;20301;-78
2021/09/11 04:24:47;;;;;;;5.07;3.30;;;;;;;13.24;50.04;94137.63;4994288;28;20564;-78
2021/09/11 04:27:13;;;;;;;5.30;3.30;;;;;;;13.21;49.62;94121.44;4996441;28;20050;-79
2021/09/11 04:29:38;;;;;;;6.13;3.45;;;;;;;13.36;49.57;94122.75;4992792;28;20042;-78
2021/09/11 04:32:04;;;;;;;3.88;3.47;;;;;;;13.36;49.56;94139.56;4994398;28;20070;-75
2021/09/11 04:34:29;;;;;;;4.55;3.10;;;;;;;13.51;49.66;94147.03;4990777;28;20555;-78
2021/09/11 04:36:55;;;;;;;7.53;3.30;;;;;;;13.74;49.20;94145.69;4994924;28;20030;-79
2021/09/11 04:39:20;;;;;;;5.90;3.65;;;;;;;13.77;48.98;94138.13;4992508;28;20832;-76
2021/09/11 04:41:46;;;;;;;5.88;3.35;;;;;;;13.63;49.87;94133.81;4994535;28;20121;-78
2021/09/11 04:44:11;;;;;;;5.53;3.58;;;;;;;13.61;49.43;94125.31;4990719;28;20074;-78
2021/09/11 04:46:36;;;;;;;4.60;4.00;;;;;;;14.14;47.96;94140.66;4993989;28;20049;-78
2021/09/11 04:49:02;;;;;;;10.45;4.60;;;;;;;14.33;47.33;94140.19;4993734;28;20401;-78
2021/09/11 04:51:27;;;;;;;4.45;3.45;;;;;;;14.28;48.11;94143.06;4994860;28;20108;-78
2021/09/11 04:53:52;;;;;;;4.95;3.70;;;;;;;14.14;48.75;94131.88;4993939;28;20420;-79
2021/09/11 04:56:19;;;;;;;8.27;4.20;;;;;;;14.16;48.43;94135.00;4995617;28;20049;-75
2021/09/11 04:58:44;;;;;;;8.23;3.60;;;;;;;14.42;48.14;94153.53;4998654;28;20176;-75
2021/09/11 05:01:10;;;;;;;6.65;3.83;;;;;;;14.41;48.72;94147.38;4992623;28;20492;-79
2021/09/11 05:03:35;;;;;;;8.25;4.15;;;;;;;14.49;48.22;94146.50;4995253;28;20042;-79
2021/09/11 05:06:01;;;;;;;11.57;4.05;;;;;;;14.50;47.97;94129.34;4992602;28;20087;-79
2021/09/11 05:08:26;;;;;;;9.68;4.80;;;;;;;14.55;47.67;94137.19;4990650;28;20030;-80
2021/09/11 05:10:52;;;;;;;11.45;7.38;;;;;;;14.72;47.52;94138.13;4992025;28;20031;-79
2021/09/11 05:13:17;;;;;;;40.78;22.48;;;;;;;14.91;47.40;94139.19;4992383;28;20022;-79
2021/09/11 05:15:42;;;;;;;50.03;30.05;;;;;;;15.06;46.51;94145.03;4993941;28;20034;-79
2021/09/11 05:18:08;;;;;;;23.55;13.00;;;;;;;15.25;45.14;94146.06;4994364;28;20046;-80
2021/09/11 05:20:33;;;;;;;21.38;10.88;;;;;;;15.34;44.92;94127.97;4994794;28;20590;-80
2021/09/11 05:22:59;;;;;;;24.42;12.20;;;;;;;15.39;43.91;94114.34;4991700;28;20050;-79
2021/09/11 05:25:24;;;;;;;19.45;10.82;;;;;;;15.51;44.61;94134.25;4993059;28;20100;-79
2021/09/11 05:27:49;;;;;;;18.48;10.38;;;;;;;15.54;44.47;94129.00;4991216;28;20157;-79
2021/09/11 05:30:18;;;;;;;16.92;7.70;;;;;;;15.58;44.50;94131.78;4992289;28;20038;-79
2021/09/11 05:32:44;;;;;;;12.32;6.88;;;;;;;15.31;44.98;94104.50;4989756;28;20509;-80
2021/09/11 05:35:09;;;;;;;17.33;7.45;;;;;;;15.64;45.30;94138.50;4991600;28;20493;-79
2021/09/11 05:37:34;;;;;;;12.88;7.25;;;;;;;15.36;44.93;94122.25;4991892;28;20038;-79
2021/09/11 05:40:00;;;;;;;14.20;6.90;;;;;;;15.59;45.24;94136.03;4992856;28;20101;-79
2021/09/11 05:42:25;;;;;;;15.15;6.25;;;;;;;15.87;44.51;94143.03;4996344;28;20682;-79
2021/09/11 05:44:50;;;;;;;8.48;5.65;;;;;;;15.71;44.76;94138.69;4994847;28;20068;-79
2021/09/11 05:47:16;;;;;;;10.40;5.82;;;;;;;15.81;44.82;94138.25;4993127;28;20038;-79
2021/09/11 05:49:41;;;;;;;12.10;6.40;;;;;;;15.97;44.12;94135.66;4991422;28;20050;-80
2021/09/11 05:52:07;;;;;;;8.50;6.38;;;;;;;16.02;44.18;94138.09;4994227;28;20025;-80
2021/09/11 05:54:32;;;;;;;14.68;6.13;;;;;;;16.05;43.48;94121.31;4996011;28;20030;-79
2021/09/11 05:56:58;;;;;;;9.35;6.07;;;;;;;16.13;43.67;94139.97;4995412;28;20042;-78
2021/09/11 05:59:25;;;;;;;9.82;5.88;;;;;;;16.13;43.11;94131.94;4993061;28;20630;-76
2021/09/11 06:01:50;;;;;;;13.35;7.28;;;;;;;16.22;43.36;94126.41;5001339;28;20070;-78
2021/09/11 06:04:16;;;;;;;8.30;6.55;;;;;;;16.31;42.93;94130.53;4992180;28;20476;-78
2021/09/11 06:06:41;;;;;;;13.88;7.35;;;;;;;16.42;42.53;94120.09;4992794;28;20113;-79
2021/09/11 06:09:07;;;;;;;13.30;7.30;;;;;;;16.42;42.66;94132.75;4988145;28;20068;-77
2021/09/11 06:11:32;;;;;;;13.75;7.65;;;;;;;16.19;42.99;94114.44;4991667;28;20052;-79
2021/09/11 06:13:58;;;;;;;13.20;6.82;;;;;;;16.40;42.56;94118.88;4992355;28;21183;-80
2021/09/11 06:16:24;;;;;;;10.13;6.55;;;;;;;16.59;41.84;94137.81;4990571;28;20463;-78
2021/09/11 06:18:49;;;;;;;12.52;7.10;;;;;;;16.62;42.27;94131.78;4989885;28;20911;-77
2021/09/11 06:21:14;;;;;;;9.15;7.35;;;;;;;16.37;43.10;94122.25;4991867;28;20502;-79
2021/09/11 06:23:40;;;;;;;17.00;8.40;;;;;;;16.58;42.37;94138.94;4990648;28;20089;-78
2021/09/11 06:26:05;;;;;;;14.07;8.65;;;;;;;16.65;42.88;94133.75;4993444;28;20522;-79
2021/09/11 06:28:31;;;;;;;12.27;7.57;;;;;;;16.41;42.68;94112.38;4991353;28;20042;-78
2021/09/11 06:30:56;;;;;;;14.40;8.65;;;;;;;16.82;41.65;94135.38;4994493;28;20018;-78
2021/09/11 06:33:22;;;;;;;15.82;7.97;;;;;;;16.82;42.02;94128.06;4989940;28;20046;-79
2021/09/11 06:35:47;;;;;;;14.88;8.30;;;;;;;16.89;42.23;94128.25;4990929;28;20041;-79
2021/09/11 06:38:13;;;;;;;14.25;7.93;;;;;;;17.06;42.73;94140.59;4994941;28;20053;-80
2021/09/11 06:40:38;;;;;;;14.65;8.77;;;;;;;16.98;42.93;94136.94;4989153;28;20162;-77
2021/09/11 06:43:04;;;;;;;12.90;8.48;;;;;;;16.97;42.08;94140.75;4995878;28;20049;-79
2021/09/11 06:45:30;;;;;;;16.30;8.43;;;;;;;17.19;41.90;94136.72;4991806;28;20042;-80
2021/09/11 06:47:56;;;;;;;16.42;8.30;;;;;;;17.07;41.94;94128.69;4993785;28;20041;-79
2021/09/11 06:50:21;;;;;;;13.85;7.82;;;;;;;17.11;42.55;94124.22;4991365;28;20034;-77
2021/09/11 06:52:47;;;;;;;12.68;7.82;;;;;;;17.15;42.08;94139.34;4992523;28;20042;-78
2021/09/11 06:55:13;;;;;;;16.30;7.82;;;;;;;17.31;41.96;94122.41;4996121;28;20036;-79
2021/09/11 06:57:39;;;;;;;11.63;8.40;;;;;;;17.11;42.05;94119.59;4991532;28;20026;-76
2021/09/11 07:00:06;;;;;;;11.23;7.40;;;;;;;17.27;41.46;94097.34;4999915;28;20039;-80
2021/09/11 07:02:32;;;;;;;12.63;7.72;;;;;;;17.52;41.04;94122.91;4993004;28;20043;-80
2021/09/11 07:04:57;;;;;;;15.98;8.38;;;;;;;17.71;41.14;94131.03;4991520;28;20041;-79
2021/09/11 07:07:22;;;;;;;11.45;7.07;;;;;;;17.59;41.58;94131.16;4991784;28;20643;-79
2021/09/11 07:09:48;;;;;;;9.07;6.00;;;;;;;17.52;40.55;94115.63;4991950;28;20046;-80
2021/09/11 07:12:15;;;;;;;11.95;7.50;;;;;;;17.69;41.27;94129.84;4993386;28;20093;-79
2021/09/11 07:14:40;;;;;;;10.90;6.95;;;;;;;17.74;41.14;94124.19;4988762;28;20046;-79
2021/09/11 07:17:06;;;;;;;23.20;8.50;;;;;;;17.96;40.34;94118.94;4989418;28;20038;-79
2021/09/11 07:19:31;;;;;;;15.18;6.15;;;;;;;18.02;40.56;94117.56;4990251;28;20038;-80
2021/09/11 07:21:58;;;;;;;11.27;6.90;;;;;;;17.99;40.39;94110.16;4993047;28;20050;-79
2021/09/11 07:24:23;;;;;;;9.88;7.20;;;;;;;17.83;40.63;94120.19;4990924;28;20050;-79
2021/09/11 07:26:50;;;;;;;8.98;6.53;;;;;;;17.98;40.97;94111.31;4987886;28;20042;-79
2021/09/11 07:29:16;;;;;;;15.50;6.28;;;;;;;18.23;40.98;94129.91;4989572;28;20042;-79
2021/09/11 07:31:41;;;;;;;9.13;4.68;;;;;;;18.22;39.88;94115.66;4990280;28;20512;-79
2021/09/11 07:34:07;;;;;;;8.80;5.55;;;;;;;18.29;40.93;94117.69;4994371;28;20564;-80
2021/09/11 07:36:33;;;;;;;13.70;5.40;;;;;;;18.51;40.18;94125.09;4995420;28;20440;-79
2021/09/11 07:38:58;;;;;;;8.02;5.07;;;;;;;18.71;38.24;94107.78;4989774;28;20043;-80
2021/09/11 07:41:24;;;;;;;10.18;4.65;;;;;;;18.78;39.05;94113.31;4994848;28;20096;-80
2021/09/11 07:43:49;;;;;;;14.23;6.47;;;;;;;18.78;39.14;94109.81;4997087;28;20070;-79
2021/09/11 07:46:15;;;;;;;9.98;5.63;;;;;;;18.68;39.24;94119.25;4994613;28;20499;-80
2021/09/11 07:48:40;;;;;;;10.25;5.22;;;;;;;18.80;38.54;94116.44;4992523;28;20025;-79
2021/09/11 07:51:05;;;;;;;7.40;4.75;;;;;;;18.73;39.13;94102.81;4991682;28;20061;-80
2021/09/11 07:53:31;;;;;;;9.63;4.57;;;;;;;18.69;39.68;94115.41;4992762;28;20062;-79
2021/09/11 07:55:58;;;;;;;6.88;4.10;;;;;;;18.97;38.58;94106.34;5000250;28;20045;-80
2021/09/11 07:58:23;;;;;;;8.35;5.25;;;;;;;19.04;38.69;94103.75;4992610;28;20030;-81
2021/09/11 08:00:48;;;;;;;7.90;4.07;;;;;;;19.10;37.74;94094.22;4985592;28;20032;-80
2021/09/11 08:03:14;;;;;;;9.25;4.15;;;;;;;19.03;37.28;94097.56;4989847;28;20465;-81
2021/09/11 08:05:39;;;;;;;6.28;3.25;;;;;;;19.16;37.53;94098.19;4992198;28;20282;-80
2021/09/11 08:08:05;;;;;;;5.97;3.85;;;;;;;19.17;36.88;94100.50;4991524;28;20038;-75
2021/09/11 08:10:31;;;;;;;7.80;4.10;;;;;;;19.31;36.68;94094.59;4992206;28;20390;-80
2021/09/11 08:12:56;;;;;;;8.75;3.72;;;;;;;19.36;37.35;94091.56;4990421;28;20026;-80
2021/09/11 08:15:21;;;;;;;17.63;4.22;;;;;;;19.35;37.42;94087.31;4997966;28;20036;-79
2021/09/11 08:17:47;;;;;;;9.82;4.00;;;;;;;19.38;37.34;94091.22;4997472;28;20042;-79
2021/09/11 08:20:14;;;;;;;5.38;3.88;;;;;;;19.32;37.70;94079.94;4991250;28;20448;-79
2021/09/11 08:22:40;;;;;;;5.22;3.75;;;;;;;19.32;36.74;94085.34;4993169;28;20050;-79
2021/09/11 08:25:06;;;;;;;8.95;4.93;;;;;;;19.33;37.86;94079.59;4989839;28;20592;-78
2021/09/11 08:27:32;;;;;;;11.02;4.40;;;;;;;19.27;38.07;94066.75;4990258;28;20037;-79
2021/09/11 08:29:57;;;;;;;9.00;4.47;;;;;;;19.20;37.80;94064.75;4994225;28;20050;-81
2021/09/11 08:32:22;;;;;;;6.95;3.70;;;;;;;19.43;36.24;94077.41;4989372;28;20672;-79
2021/09/11 08:34:48;;;;;;;11.50;3.85;;;;;;;19.32;36.46;94066.47;4990164;28;20493;-80
2021/09/11 08:37:14;;;;;;;9.23;4.13;;;;;;;19.48;36.84;94075.22;4993644;28;20109;-77
2021/09/11 08:39:39;;;;;;;10.95;3.45;;;;;;;19.66;36.76;94078.94;4991189;28;20218;-78
2021/09/11 08:42:05;;;;;;;7.28;3.55;;;;;;;19.93;35.48;94077.03;4995044;28;20029;-79
2021/09/11 08:44:31;;;;;;;6.70;2.60;;;;;;;19.97;34.53;94066.25;4995362;28;20030;-79
2021/09/11 08:46:57;;;;;;;7.68;3.70;;;;;;;19.98;34.31;94070.53;4988598;28;20609;-78
2021/09/11 08:49:23;;;;;;;15.10;3.10;;;;;;;20.05;32.60;94065.97;4994043;28;20960;-79
2021/09/11 08:51:50;;;;;;;6.95;3.00;;;;;;;20.02;32.04;94074.03;4991086;28;20053;-79
2021/09/11 08:54:18;;;;;;;4.97;2.25;;;;;;;19.92;33.14;94061.19;4997283;28;20037;-77
2021/09/11 08:56:45;;;;;;;10.15;3.20;;;;;;;20.14;35.74;94060.31;4993168;28;20048;-79
2021/09/11 08:59:13;;;;;;;3.83;2.60;;;;;;;20.37;33.66;94071.81;4996130;28;20045;-78
2021/09/11 09:01:39;;;;;;;8.80;2.85;;;;;;;20.28;33.91;94068.63;4994916;28;20038;-79
2021/09/11 09:04:05;;;;;;;9.18;3.53;;;;;;;20.06;32.99;94045.16;4995045;28;20026;-78
2021/09/11 09:06:32;;;;;;;5.95;3.13;;;;;;;20.06;32.15;94064.06;4997596;28;20038;-77
2021/09/11 09:09:14;;;;;;;7.22;2.20;;;;;;;20.11;31.37;94069.16;4994534;28;20037;-79
2021/09/11 09:11:44;;;;;;;6.47;3.13;;;;;;;20.29;31.20;94056.66;4996677;28;20034;-80
2021/09/11 09:14:15;;;;;;;5.03;2.58;;;;;;;20.34;30.66;94053.63;4994231;28;20117;-79
2021/09/11 09:16:42;;;;;;;5.32;2.63;;;;;;;20.42;31.31;94060.69;4994017;28;20047;-80
2021/09/11 09:19:23;;;;;;;7.15;2.40;;;;;;;20.33;30.63;94054.78;4996569;28;20038;-79
2021/09/11 09:21:54;;;;;;;4.57;2.05;;;;;;;20.43;30.15;94053.38;4993032;28;20042;-80
2021/09/11 09:24:30;;;;;;;6.28;2.47;;;;;;;20.42;30.93;94049.88;4998456;28;20034;-80
2021/09/11 09:27:00;;;;;;;5.82;2.65;;;;;;;20.54;31.44;94052.31;4993931;28;20052;-79
2021/09/11 09:29:26;;;;;;;5.80;2.40;;;;;;;20.46;32.09;94036.41;4997287;28;20041;-79
2021/09/11 09:31:55;;;;;;;7.18;3.13;;;;;;;20.75;32.93;94048.28;4997501;28;20030;-79
2021/09/11 09:34:41;;;;;;;5.82;2.80;;;;;;;20.76;31.26;94047.13;4995048;28;20504;-77
2021/09/11 09:37:13;;;;;;;3.45;3.03;;;;;;;20.98;33.04;94043.50;4995592;28;20030;-79
2021/09/11 09:39:44;;;;;;;5.25;2.13;;;;;;;21.04;32.32;94033.91;4998198;28;20050;-80
2021/09/11 09:42:11;;;;;;;3.30;2.20;;;;;;;21.07;31.30;94033.13;4996538;28;20563;-80
2021/09/11 09:44:49;;;;;;;9.02;2.70;;;;;;;20.94;30.50;94034.59;4990332;28;20046;-79
2021/09/11 09:47:19;;;;;;;5.72;2.72;;;;;;;21.10;30.28;94040.53;4994703;28;20065;-80
2021/09/11 09:50:03;;;;;;;4.97;2.60;;;;;;;21.24;30.38;94029.81;4994366;28;20042;-79
2021/09/11 09:52:29;;;;;;;3.88;2.30;;;;;;;21.22;29.66;94032.09;4994720;28;20491;-80
2021/09/11 09:54:56;;;;;;;5.22;2.42;;;;;;;21.36;30.44;94026.03;4997870;28;20039;-80
2021/09/11 09:57:22;;;;;;;5.68;2.83;;;;;;;21.32;29.83;94028.69;5000308;28;20037;-79
2021/09/11 09:59:48;;;;;;;4.47;2.33;;;;;;;21.26;30.20;94002.41;5001150;28;20034;-79
2021/09/11 10:02:14;;;;;;;5.85;3.10;;;;;;;21.40;29.76;94024.13;4992037;28;20052;-78
2021/09/11 10:04:39;;;;;;;6.57;2.45;;;;;;;21.44;30.07;94020.31;4991907;28;20042;-80
2021/09/11 10:07:06;;;;;;;4.45;2.55;;;;;;;21.46;29.73;94014.53;4995323;28;20029;-80
2021/09/11 10:09:33;;;;;;;4.60;2.55;;;;;;;21.60;30.64;94016.56;4991205;28;20508;-80
2021/09/11 10:11:59;;;;;;;6.80;2.75;;;;;;;21.50;29.92;94020.72;4994130;28;20065;-79
2021/09/11 10:14:32;;;;;;;5.65;2.30;;;;;;;21.50;29.25;94014.53;4993143;28;20082;-79
2021/09/11 10:17:09;;;;;;;5.93;2.30;;;;;;;21.20;29.80;93972.22;4988429;28;20509;-79
2021/09/11 10:19:42;;;;;;;6.00;2.80;;;;;;;21.27;29.57;94002.00;4996570;28;20050;-81
2021/09/11 10:22:22;;;;;;;7.47;2.67;;;;;;;21.24;29.41;94018.22;4992147;28;20028;-80
2021/09/11 10:25:06;;;;;;;4.53;2.35;;;;;;;21.42;29.55;93997.47;4994721;28;20049;-80
2021/09/11 10:27:40;;;;;;;8.35;2.63;;;;;;;21.60;29.96;94011.16;4991074;28;20675;-78
2021/09/11 10:30:15;;;;;;;6.43;2.95;;;;;;;21.75;30.32;94002.72;4995382;28;20039;-79
2021/09/11 10:32:44;;;;;;;5.88;2.65;;;;;;;21.62;29.41;94004.19;4993161;28;20040;-79
2021/09/11 10:35:12;;;;;;;11.18;3.65;;;;;;;21.95;29.20;94008.59;4994636;28;20049;-80
2021/09/11 10:37:40;;;;;;;8.43;3.53;;;;;;;22.02;29.02;94005.94;4992866;28;20069;-80
2021/09/11 10:40:23;;;;;;;4.93;3.40;;;;;;;21.80;29.72;94004.31;4994719;28;20044;-80
2021/09/11 10:45:54;;;;;;;12.52;2.90;;;;;;;22.09;27.99;94003.28;4993156;28;20046;-80
2021/09/11 10:48:44;;;;;;;5.22;2.60;;;;;;;22.14;28.86;94002.91;4994533;28;20752;-81
2021/09/11 10:51:21;;;;;;;6.93;3.05;;;;;;;21.91;28.18;93996.22;4994677;28;20547;-80
2021/09/11 10:54:09;;;;;;;4.85;2.75;;;;;;;21.67;28.23;93984.88;4994376;28;20069;-80
2021/09/11 10:56:42;;;;;;;2.72;2.42;;;;;;;21.77;28.36;93983.38;4993998;28;20061;-80
2021/09/11 10:59:16;;;;;;;8.73;6.68;;;;;;;21.98;29.09;93982.72;4994632;28;20046;-80
2021/09/11 11:01:54;;;;;;;;;;;;;;;21.86;26.46;93981.88;4995669;28;20070;-80
2021/09/11 11:04:42;;;;;;;6.28;3.15;;;;;;;22.09;26.86;93972.69;5002835;28;19914;-80
2021/09/11 11:07:09;;;;;;;4.28;2.47;;;;;;;22.20;27.16;93970.78;4994471;28;20046;-80
2021/09/11 11:09:44;;;;;;;7.50;2.83;;;;;;;22.03;25.76;93968.81;4992868;28;20030;-79
2021/09/11 11:12:12;;;;;;;5.28;2.30;;;;;;;22.12;25.76;93956.47;4993722;28;20034;-81
2021/09/11 11:14:47;;;;;;;4.85;2.05;;;;;;;22.24;25.95;93950.69;4992902;28;20031;-79
2021/09/11 11:17:17;;;;;;;;;;;;;;;22.30;25.44;93965.44;4993169;28;20073;-80
2021/09/11 11:19:46;;;;;;;3.75;2.10;;;;;;;22.17;23.77;93937.13;4993286;28;19918;-80
2021/09/11 11:22:28;;;;;;;5.18;2.40;;;;;;;22.42;23.52;93958.09;4992034;28;20436;-81
2021/09/11 11:24:54;;;;;;;4.07;1.95;;;;;;;22.47;23.53;93950.38;4994623;28;20026;-81
2021/09/11 11:27:21;;;;;;;3.33;1.80;;;;;;;22.52;24.13;93943.81;4994510;28;20081;-80
2021/09/11 11:29:49;;;;;;;4.30;1.80;;;;;;;22.37;23.54;93920.56;4996416;28;20053;-80
2021/09/11 11:32:15;;;;;;;3.50;1.83;;;;;;;22.59;24.36;93935.66;4991429;28;20069;-80
2021/09/11 11:34:41;;;;;;;2.95;1.98;;;;;;;22.56;24.09;93936.44;4995439;28;20042;-80